Date,TemperatureHighF,TemperatureAvgF,TemperatureLowF,DewpointHighF,DewpointAvgF,DewpointLowF,HumidityHigh,HumidityAvg,HumidityLow,PressureMaxIn,PressureMinIn,WindSpeedMaxMPH,WindSpeedAvgMPH,GustSpeedMaxMPH,PrecipitationSumIn
2013-6-1,106.0,87.6,64.6,46.3,39.3,32.0,41,21,5,29.90,29.75,7,1,8,0.00
2013-6-2,107.1,89.9,70.2,47.1,38.8,28.3,36,19,7,29.87,29.73,10,2,14,0.00
2013-6-3,104.4,88.1,66.8,44.4,35.5,26.4,35,16,5,29.91,29.80,9,2,11,0.00
2013-6-4,103.5,87.0,70.2,46.1,37.6,30.3,30,19,7,29.93,29.83,11,2,11,0.00
2013-6-5,101.5,85.3,65.2,43.9,33.8,23.8,34,17,5,29.95,29.82,9,2,10,0.00
2013-6-6,104.6,85.9,63.2,38.8,32.9,24.7,31,16,7,29.90,29.76,8,2,14,0.00
2013-6-7,108.4,89.4,67.0,41.6,35.3,27.7,34,15,5,29.87,29.71,8,2,10,0.00
2013-6-8,104.4,89.9,69.1,42.1,33.9,25.9,31,13,5,29.90,29.80,11,3,16,0.00
2013-6-9,103.7,88.6,69.8,45.6,35.2,27.4,35,15,3,29.97,29.84,11,3,17,0.00
2013-6-10,106.9,89.0,67.1,41.2,34.9,28.1,31,15,3,29.97,29.83,10,2,12,0.00
2013-6-11,108.0,90.5,68.8,41.1,34.9,26.0,32,13,3,29.95,29.84,10,3,12,0.00
2013-6-12,108.2,91.6,70.0,40.7,34.8,27.8,30,14,6,30.00,29.85,11,3,12,0.00
2013-6-13,103.5,91.6,76.0,51.0,42.9,34.5,35,20,11,29.99,29.83,14,3,14,0.00
2013-6-14,104.4,91.6,78.1,56.9,50.0,41.9,41,26,15,29.95,29.79,10,3,11,0.00
2013-6-15,103.7,88.2,78.3,67.9,56.0,44.7,58,35,20,29.96,29.84,10,2,14,0.35
2013-6-16,103.5,88.3,71.3,63.9,52.4,33.9,71,36,10,29.99,29.85,7,2,11,0.00
2013-6-17,104.2,87.6,67.5,50.2,39.7,29.6,49,22,7,30.00,29.84,10,2,10,0.00
2013-6-18,106.9,87.4,66.4,46.1,35.5,20.4,40,16,1,29.93,29.80,13,2,13,0.00
2013-6-19,106.2,86.9,64.1,38.4,32.4,24.8,31,14,3,29.87,29.75,10,2,13,0.00
2013-6-20,105.5,87.4,66.1,43.0,33.9,24.4,34,15,3,29.91,29.79,8,2,11,0.00
2013-6-21,105.7,88.6,68.0,43.9,34.7,25.9,33,14,3,29.94,29.81,11,3,13,0.00
2013-6-22,104.4,87.8,67.5,41.3,33.8,23.8,31,15,3,29.94,29.80,14,2,14,0.00
2013-6-23,104.2,87.1,64.6,40.3,34.2,26.6,34,16,3,29.91,29.75,16,3,16,0.00
2013-6-24,103.7,87.1,67.0,43.3,34.4,25.7,31,16,5,29.92,29.82,16,3,16,0.00
2013-6-25,103.3,86.3,66.2,45.7,34.5,24.4,37,17,3,30.00,29.88,9,2,10,0.00
2013-6-26,103.5,86.7,64.8,39.3,31.7,24.3,30,14,3,30.07,29.95,10,2,11,0.00
2013-6-27,105.5,88.7,68.6,44.8,35.5,25.3,28,17,8,30.10,29.93,16,3,16,0.00
2013-6-28,109.8,91.7,71.5,45.9,39.2,34.5,33,18,9,30.00,29.85,6,1,8,0.00
2013-6-29,112.7,96.3,78.1,47.9,42.7,38.4,28,17,9,29.94,29.80,10,2,19,0.00
2013-6-30,110.2,95.1,81.7,60.8,50.7,42.1,48,25,12,30.03,29.74,19,3,19,0.03